Time;durP1;ratioP1;P1;durP2;ratioP2;P2;SDS_P1;SDS_P2;PMS_P1;PMS_P2;Temp;Humidity;BMP_temperature;BMP_pressure;BME280_temperature;BME280_humidity;BME280_pressure;Samples;Min_cycle;Max_cycle;Signal;HPM_P1;HPM_P2
2021/11/10 00:01:36;;;;;;;7.85;6.00;;;;;;;;;;5039472;28;20228;-59
2021/11/10 00:04:04;;;;;;;8.50;6.38;;;;;;;;;;5039744;28;20216;-59
2021/11/10 00:06:32;;;;;;;10.18;6.45;;;;;;;;;;5039176;28;20207;-59
2021/11/10 00:08:59;;;;;;;10.98;6.90;;;;;;;;;;5037693;28;20202;-59
2021/11/10 00:11:26;;;;;;;10.57;6.35;;;;;;;;;;5035831;28;20233;-59
2021/11/10 00:13:54;;;;;;;6.53;5.63;;;;;;;;;;5035172;28;20317;-59
2021/11/10 00:16:23;;;;;;;11.57;5.72;;;;;;;;;;5034712;28;20216;-58
2021/11/10 00:18:51;;;;;;;7.30;5.50;;;;;;;;;;5035380;28;20213;-60
2021/11/10 00:21:19;;;;;;;8.07;5.95;;;;;;;;;;5034162;28;20702;-59
2021/11/10 00:23:46;;;;;;;7.03;6.30;;;;;;;;;;5034454;28;20355;-59
2021/11/10 00:26:13;;;;;;;8.57;5.95;;;;;;;;;;5037567;28;20205;-58
2021/11/10 00:28:41;;;;;;;8.48;5.80;;;;;;;;;;5037571;28;20204;-58
2021/11/10 00:31:08;;;;;;;6.63;5.45;;;;;;;;;;5038695;28;20230;-59
2021/11/10 00:33:37;;;;;;;6.90;5.50;;;;;;;;;;5037938;28;20222;-58
2021/11/10 00:36:05;;;;;;;9.80;5.47;;;;;;;;;;5038182;28;20203;-58
2021/11/10 00:38:32;;;;;;;8.15;6.40;;;;;;;;;;5037249;28;20209;-58
2021/11/10 00:41:00;;;;;;;7.28;6.35;;;;;;;;;;5037055;28;20217;-59
2021/11/10 00:43:27;;;;;;;6.68;5.97;;;;;;;;;;5037211;28;20568;-58
2021/11/10 00:45:54;;;;;;;6.47;5.88;;;;;;;;;;5036854;28;20205;-59
2021/11/10 00:48:22;;;;;;;11.95;7.00;;;;;;;;;;5037185;28;20229;-59
2021/11/10 00:50:51;;;;;;;6.43;5.35;;;;;;;;;;5037331;28;20202;-58
2021/11/10 00:53:18;;;;;;;7.32;6.20;;;;;;;;;;5037119;28;20229;-59
2021/11/10 00:55:45;;;;;;;10.88;6.45;;;;;;;;;;5037142;28;20203;-58
2021/11/10 00:58:13;;;;;;;6.40;5.60;;;;;;;;;;5036433;28;20571;-59
2021/11/10 01:00:40;;;;;;;7.55;6.40;;;;;;;;;;5037021;28;20260;-59
2021/11/10 01:03:08;;;;;;;9.13;6.45;;;;;;;;;;5037113;28;20198;-59
2021/11/10 01:05:35;;;;;;;10.73;6.15;;;;;;;;;;5036992;28;20209;-59
2021/11/10 01:08:04;;;;;;;7.95;5.50;;;;;;;;;;5036586;28;20206;-58
2021/11/10 01:10:32;;;;;;;13.55;6.47;;;;;;;;;;5036809;28;20202;-57
2021/11/10 01:13:01;;;;;;;8.50;6.40;;;;;;;;;;5036592;28;20589;-58
2021/11/10 01:15:28;;;;;;;9.32;6.45;;;;;;;;;;5036806;28;20287;-59
2021/11/10 01:17:56;;;;;;;10.20;7.00;;;;;;;;;;5036811;28;20202;-58
2021/11/10 01:20:23;;;;;;;6.72;5.63;;;;;;;;;;5037400;28;20213;-58
2021/11/10 01:22:50;;;;;;;8.23;6.10;;;;;;;;;;5037555;28;20225;-59
2021/11/10 01:25:19;;;;;;;7.00;5.60;;;;;;;;;;5042122;28;20209;-58
2021/11/10 01:27:46;;;;;;;9.30;6.45;;;;;;;;;;5042223;28;20210;-59
2021/11/10 01:30:14;;;;;;;8.88;6.95;;;;;;;;;;5040219;28;20658;-58
2021/11/10 01:32:41;;;;;;;10.68;7.18;;;;;;;;;;5038700;28;20237;-58
2021/11/10 01:35:09;;;;;;;6.72;5.93;;;;;;;;;;5036233;28;20206;-58
2021/11/10 01:37:37;;;;;;;9.50;6.70;;;;;;;;;;5036074;28;20206;-58
2021/11/10 01:40:05;;;;;;;10.50;6.57;;;;;;;;;;5036094;28;20202;-58
2021/11/10 01:42:34;;;;;;;9.40;6.55;;;;;;;;;;5036723;28;20222;-59
2021/11/10 01:45:01;;;;;;;8.43;6.40;;;;;;;;;;5037618;28;20206;-59
2021/11/10 01:47:28;;;;;;;9.90;7.57;;;;;;;;;;5037647;28;20638;-58
2021/11/10 01:49:56;;;;;;;9.50;6.78;;;;;;;;;;5037689;28;20202;-58
2021/11/10 01:52:23;;;;;;;8.35;5.95;;;;;;;;;;5036332;28;20605;-58
2021/11/10 01:54:51;;;;;;;11.52;6.43;;;;;;;;;;5035842;28;20221;-59
2021/11/10 01:57:19;;;;;;;8.13;6.80;;;;;;;;;;5035930;28;20206;-60
2021/11/10 01:59:48;;;;;;;8.88;6.93;;;;;;;;;;5035703;28;20709;-59
2021/11/10 02:02:21;;;;;;;9.77;6.38;;;;;;;;;;5035385;28;20594;-57
2021/11/10 02:04:49;;;;;;;9.48;6.53;;;;;;;;;;5035694;28;20182;-59
2021/11/10 02:07:16;;;;;;;13.27;7.70;;;;;;;;;;5035456;28;20213;-59
2021/11/10 02:09:44;;;;;;;8.85;6.30;;;;;;;;;;5035422;28;20210;-57
2021/11/10 02:12:12;;;;;;;8.07;6.40;;;;;;;;;;5035007;28;20729;-58
2021/11/10 02:14:41;;;;;;;8.95;7.03;;;;;;;;;;5035431;28;20226;-58
2021/11/10 02:17:14;;;;;;;10.60;7.22;;;;;;;;;;5035700;28;20213;-58
2021/11/10 02:19:42;;;;;;;10.98;7.60;;;;;;;;;;5035188;28;20269;-58
2021/11/10 02:22:10;;;;;;;11.05;6.53;;;;;;;;;;5034974;28;20223;-59
2021/11/10 02:24:38;;;;;;;7.32;6.47;;;;;;;;;;5035358;28;20201;-59
2021/11/10 02:27:14;;;;;;;11.27;7.28;;;;;;;;;;5035043;28;20241;-58
2021/11/10 02:29:41;;;;;;;11.30;7.63;;;;;;;;;;5035157;28;20265;-59
2021/11/10 02:32:11;;;;;;;7.95;6.90;;;;;;;;;;5034798;28;20241;-57
2021/11/10 02:34:38;;;;;;;6.88;6.18;;;;;;;;;;5034519;28;20773;-58
2021/11/10 02:37:05;;;;;;;10.98;6.53;;;;;;;;;;5035020;28;20202;-58
2021/11/10 02:39:36;;;;;;;9.30;5.80;;;;;;;;;;5034856;28;20678;-59
2021/11/10 02:42:04;;;;;;;8.38;6.97;;;;;;;;;;5034924;28;20595;-59
2021/11/10 02:44:32;;;;;;;9.32;6.05;;;;;;;;;;5034436;28;20630;-58
2021/11/10 02:46:59;;;;;;;7.68;6.28;;;;;;;;;;5034156;28;20203;-57
2021/11/10 02:49:26;;;;;;;11.75;7.30;;;;;;;;;;5034400;28;20198;-59
2021/11/10 02:51:55;;;;;;;9.48;6.75;;;;;;;;;;5034548;28;20235;-57
2021/11/10 02:54:24;;;;;;;8.70;6.18;;;;;;;;;;5034433;28;20228;-58
2021/11/10 02:56:53;;;;;;;9.60;6.60;;;;;;;;;;5034583;28;20209;-57
2021/11/10 02:59:20;;;;;;;8.15;6.72;;;;;;;;;;5034248;28;20206;-59
2021/11/10 03:01:47;;;;;;;6.65;6.05;;;;;;;;;;5034582;28;20229;-59
2021/11/10 03:04:22;;;;;;;6.72;5.97;;;;;;;;;;5034404;28;20573;-59
2021/11/10 03:06:49;;;;;;;11.07;7.15;;;;;;;;;;5034638;28;20213;-59
2021/11/10 03:09:18;;;;;;;9.60;6.82;;;;;;;;;;5034295;28;20205;-59
2021/11/10 03:11:45;;;;;;;8.52;7.53;;;;;;;;;;5033997;28;20790;-58
2021/11/10 03:14:14;;;;;;;6.82;5.95;;;;;;;;;;5034095;28;20595;-59
2021/11/10 03:16:42;;;;;;;9.05;6.35;;;;;;;;;;5034473;28;20198;-59
2021/11/10 03:19:09;;;;;;;9.60;6.18;;;;;;;;;;5034106;28;20206;-58
2021/11/10 03:21:36;;;;;;;13.18;6.93;;;;;;;;;;5033976;28;20732;-58
2021/11/10 03:24:04;;;;;;;9.73;6.55;;;;;;;;;;5034039;28;20206;-58
2021/11/10 03:26:31;;;;;;;8.50;6.65;;;;;;;;;;5034008;28;20209;-58
2021/11/10 03:29:02;;;;;;;13.35;7.47;;;;;;;;;;5034011;28;20204;-57
2021/11/10 03:31:31;;;;;;;9.27;6.55;;;;;;;;;;5033640;28;20272;-58
2021/11/10 03:33:59;;;;;;;10.77;6.57;;;;;;;;;;5034335;28;20222;-58
2021/11/10 03:36:26;;;;;;;10.00;6.00;;;;;;;;;;5034135;28;20202;-59
2021/11/10 03:38:54;;;;;;;7.32;6.47;;;;;;;;;;5034432;28;20554;-58
2021/11/10 03:41:21;;;;;;;10.10;6.22;;;;;;;;;;5033752;28;20680;-59
2021/11/10 03:43:51;;;;;;;10.45;6.07;;;;;;;;;;5033974;28;20209;-57
2021/11/10 03:46:18;;;;;;;7.40;5.95;;;;;;;;;;5034982;28;20202;-58
2021/11/10 03:48:47;;;;;;;8.65;5.60;;;;;;;;;;5034125;28;20202;-57
2021/11/10 03:51:14;;;;;;;7.65;5.80;;;;;;;;;;5033556;28;20613;-58
2021/11/10 03:53:42;;;;;;;9.90;6.07;;;;;;;;;;5034333;28;20226;-59
2021/11/10 03:56:09;;;;;;;10.85;6.97;;;;;;;;;;5035365;28;20241;-58
2021/11/10 03:58:37;;;;;;;12.40;6.15;;;;;;;;;;5034433;28;20207;-59
2021/11/10 04:01:05;;;;;;;12.98;6.97;;;;;;;;;;5035697;28;20224;-59
2021/11/10 04:03:32;;;;;;;7.07;4.90;;;;;;;;;;5034232;28;20208;-59
2021/11/10 04:08:56;;;;;;;6.35;5.55;;;;;;;;;;5158227;27;20275;-59
2021/11/10 04:11:23;;;;;;;10.82;6.10;;;;;;;;;;5156009;27;20218;-60
2021/11/10 04:13:51;;;;;;;8.50;6.15;;;;;;;;;;5155804;27;20712;-59
2021/11/10 04:16:22;;;;;;;11.00;6.40;;;;;;;;;;5153764;27;20209;-59
2021/11/10 04:18:49;;;;;;;8.05;6.28;;;;;;;;;;5153049;27;20190;-59
2021/11/10 04:21:17;;;;;;;8.70;6.30;;;;;;;;;;5140205;22;20226;-61
2021/11/10 04:23:44;;;;;;;13.57;6.53;;;;;;;;;;5090913;28;20580;-61
2021/11/10 04:26:13;;;;;;;7.47;5.93;;;;;;;;;;5091198;28;20203;-61
2021/11/10 04:28:41;;;;;;;6.63;5.90;;;;;;;;;;5090367;28;20595;-61
2021/11/10 04:31:08;;;;;;;9.30;6.38;;;;;;;;;;5090534;28;20235;-60
2021/11/10 04:33:35;;;;;;;9.75;5.75;;;;;;;;;;5090227;28;20204;-60
2021/11/10 04:36:03;;;;;;;6.68;5.93;;;;;;;;;;5090449;28;20202;-60
2021/11/10 04:38:30;;;;;;;8.57;6.70;;;;;;;;;;5090864;28;20205;-60
2021/11/10 04:40:57;;;;;;;7.82;6.30;;;;;;;;;;5089951;28;20223;-60
2021/11/10 04:43:26;;;;;;;7.40;5.90;;;;;;;;;;5090102;28;20621;-60
2021/11/10 04:46:00;;;;;;;7.57;6.35;;;;;;;;;;5089850;28;20211;-60
2021/11/10 04:48:28;;;;;;;6.97;5.95;;;;;;;;;;5090106;28;20308;-60
2021/11/10 04:50:55;;;;;;;7.05;5.82;;;;;;;;;;5089747;28;20226;-60
2021/11/10 04:53:22;;;;;;;7.70;6.57;;;;;;;;;;5090065;28;20588;-60
2021/11/10 04:55:50;;;;;;;8.77;6.53;;;;;;;;;;5090173;28;20278;-60
2021/11/10 04:58:17;;;;;;;8.77;6.30;;;;;;;;;;5090082;28;20199;-61
2021/11/10 05:00:46;;;;;;;11.27;7.03;;;;;;;;;;5089463;28;20222;-60
2021/11/10 05:03:13;;;;;;;9.45;6.15;;;;;;;;;;5089779;28;20249;-60
2021/11/10 05:05:41;;;;;;;12.68;7.70;;;;;;;;;;5089553;28;20234;-61
2021/11/10 05:08:08;;;;;;;10.65;6.65;;;;;;;;;;5089842;28;20223;-60
2021/11/10 05:10:35;;;;;;;8.80;6.22;;;;;;;;;;5089527;28;20227;-60
2021/11/10 05:13:03;;;;;;;9.30;6.53;;;;;;;;;;5089742;28;20617;-60
2021/11/10 05:15:30;;;;;;;9.88;6.32;;;;;;;;;;5089792;28;20207;-59
2021/11/10 05:17:59;;;;;;;9.70;6.55;;;;;;;;;;5089385;28;20198;-60
2021/11/10 05:20:26;;;;;;;9.75;6.20;;;;;;;;;;5075494;28;20601;-59
2021/11/10 05:22:53;;;;;;;10.60;6.40;;;;;;;;;;5075839;28;20203;-60
2021/11/10 05:25:21;;;;;;;9.75;6.40;;;;;;;;;;5075663;28;20644;-59
2021/11/10 05:27:49;;;;;;;14.27;6.45;;;;;;;;;;5075899;28;20625;-60
2021/11/10 05:30:16;;;;;;;14.07;6.95;;;;;;;;;;5075753;28;20196;-59
2021/11/10 05:32:44;;;;;;;8.65;6.60;;;;;;;;;;5075590;28;20203;-58
2021/11/10 05:35:13;;;;;;;9.80;6.03;;;;;;;;;;5075992;28;20199;-59
2021/11/10 05:37:40;;;;;;;8.65;5.82;;;;;;;;;;5075555;28;20603;-58
2021/11/10 05:40:09;;;;;;;7.30;5.50;;;;;;;;;;5075502;28;20589;-58
2021/11/10 05:42:37;;;;;;;8.10;5.03;;;;;;;;;;5075541;28;20201;-59
2021/11/10 05:45:05;;;;;;;7.68;5.65;;;;;;;;;;5076078;28;20203;-60
2021/11/10 05:47:32;;;;;;;8.27;5.85;;;;;;;;;;5075275;28;20223;-59
2021/11/10 05:49:59;;;;;;;10.70;5.82;;;;;;;;;;5075433;28;20205;-60
2021/11/10 05:52:28;;;;;;;7.28;6.40;;;;;;;;;;5075055;28;20221;-59
2021/11/10 05:54:56;;;;;;;8.52;5.80;;;;;;;;;;5075061;28;20207;-60
2021/11/10 05:57:23;;;;;;;15.95;7.15;;;;;;;;;;5075076;28;20675;-58
2021/11/10 05:59:51;;;;;;;9.15;6.63;;;;;;;;;;5076233;28;20226;-60
2021/11/10 06:02:21;;;;;;;13.10;6.25;;;;;;;;;;5075125;28;20230;-60
2021/11/10 06:04:48;;;;;;;9.32;6.30;;;;;;;;;;5075189;28;20192;-59
2021/11/10 06:07:16;;;;;;;10.82;6.70;;;;;;;;;;5075466;28;20683;-60
2021/11/10 06:09:45;;;;;;;8.80;6.05;;;;;;;;;;5075807;28;20207;-60
2021/11/10 06:12:13;;;;;;;8.90;5.82;;;;;;;;;;5075084;28;20227;-60
2021/11/10 06:14:40;;;;;;;8.48;5.70;;;;;;;;;;5075632;28;20582;-60
2021/11/10 06:17:08;;;;;;;8.77;6.05;;;;;;;;;;5075816;28;20208;-60
2021/11/10 06:19:35;;;;;;;9.40;6.05;;;;;;;;;;5074532;28;20729;-60
2021/11/10 06:22:02;;;;;;;10.63;6.53;;;;;;;;;;5074714;28;20232;-60
2021/11/10 06:24:30;;;;;;;7.53;6.05;;;;;;;;;;5074884;28;20214;-60
2021/11/10 06:26:59;;;;;;;12.07;6.55;;;;;;;;;;5074481;28;20699;-60
2021/11/10 06:29:26;;;;;;;8.82;6.40;;;;;;;;;;5074656;28;20247;-59
2021/11/10 06:31:54;;;;;;;10.90;6.57;;;;;;;;;;5073230;28;20722;-60
2021/11/10 06:34:21;;;;;;;8.88;6.45;;;;;;;;;;5074266;28;20211;-60
2021/11/10 06:36:49;;;;;;;9.25;6.60;;;;;;;;;;5075289;28;20310;-60
2021/11/10 06:39:16;;;;;;;11.13;6.68;;;;;;;;;;5074097;28;20200;-60
2021/11/10 06:41:44;;;;;;;7.78;6.30;;;;;;;;;;5074363;28;20232;-60
2021/11/10 06:44:13;;;;;;;7.47;5.95;;;;;;;;;;5074191;28;20667;-60
2021/11/10 06:46:41;;;;;;;10.30;6.60;;;;;;;;;;5073781;28;20200;-60
2021/11/10 06:49:08;;;;;;;7.65;6.28;;;;;;;;;;5073974;28;20217;-60
2021/11/10 06:51:35;;;;;;;7.40;5.93;;;;;;;;;;5073997;28;20243;-58
2021/11/10 06:54:03;;;;;;;8.35;6.43;;;;;;;;;;5073516;28;20231;-60
2021/11/10 06:56:30;;;;;;;8.15;6.63;;;;;;;;;;5073673;28;20197;-59
2021/11/10 06:58:58;;;;;;;7.75;6.28;;;;;;;;;;5073903;28;20199;-60
2021/11/10 07:01:27;;;;;;;10.38;7.45;;;;;;;;;;5074552;28;20256;-61
2021/11/10 07:03:54;;;;;;;8.20;6.25;;;;;;;;;;5073918;28;20215;-60
2021/11/10 07:06:22;;;;;;;8.10;5.68;;;;;;;;;;5074471;28;20218;-59
2021/11/10 07:08:49;;;;;;;9.73;6.18;;;;;;;;;;5073562;28;20222;-61
2021/11/10 07:11:16;;;;;;;7.70;6.07;;;;;;;;;;5073910;28;20249;-60
2021/11/10 07:13:44;;;;;;;6.70;5.30;;;;;;;;;;5073650;28;20218;-61
2021/11/10 07:16:11;;;;;;;7.70;5.30;;;;;;;;;;5073284;28;20203;-60
2021/11/10 07:18:40;;;;;;;7.63;5.55;;;;;;;;;;5073660;28;20212;-60
2021/11/10 07:21:08;;;;;;;6.47;5.45;;;;;;;;;;5073290;28;20270;-60
2021/11/10 07:23:35;;;;;;;10.82;6.43;;;;;;;;;;5073293;28;20616;-60
2021/11/10 07:26:03;;;;;;;8.57;5.63;;;;;;;;;;5073196;28;20252;-60
2021/11/10 07:28:30;;;;;;;12.48;6.80;;;;;;;;;;5072933;28;20717;-60
2021/11/10 07:30:58;;;;;;;9.75;5.90;;;;;;;;;;5073205;28;20228;-59
2021/11/10 07:33:25;;;;;;;8.43;6.22;;;;;;;;;;5073506;28;20208;-59
2021/11/10 07:35:54;;;;;;;8.68;5.80;;;;;;;;;;5073303;28;20201;-59
2021/11/10 07:38:24;;;;;;;11.68;6.00;;;;;;;;;;5072944;28;20603;-59
2021/11/10 07:40:52;;;;;;;8.43;5.93;;;;;;;;;;5073768;28;20589;-59
2021/11/10 07:43:19;;;;;;;9.35;5.50;;;;;;;;;;5072963;28;20290;-59
2021/11/10 07:45:51;;;;;;;5.93;5.25;;;;;;;;;;5072873;28;20207;-59
2021/11/10 07:48:18;;;;;;;8.07;6.05;;;;;;;;;;5072789;28;20203;-59
2021/11/10 07:50:46;;;;;;;8.40;5.95;;;;;;;;;;5072502;28;20825;-59
2021/11/10 07:53:14;;;;;;;5.85;5.10;;;;;;;;;;5072678;28;20211;-59
2021/11/10 07:55:42;;;;;;;10.32;6.47;;;;;;;;;;5072518;28;20205;-61
2021/11/10 07:58:10;;;;;;;10.30;6.32;;;;;;;;;;5072649;28;20200;-59
2021/11/10 08:00:38;;;;;;;7.45;6.07;;;;;;;;;;5072592;28;20227;-59
2021/11/10 08:03:06;;;;;;;7.35;5.50;;;;;;;;;;5073647;28;20211;-59
2021/11/10 08:05:33;;;;;;;8.80;5.97;;;;;;;;;;5055143;28;20239;-60
2021/11/10 08:08:01;;;;;;;11.10;6.10;;;;;;;;;;5072601;28;20714;-60
2021/11/10 08:10:29;;;;;;;7.22;5.63;;;;;;;;;;5072644;28;20731;-59
2021/11/10 08:12:57;;;;;;;11.15;5.72;;;;;;;;;;5073109;28;20203;-60
2021/11/10 08:15:24;;;;;;;9.45;7.00;;;;;;;;;;5073132;28;20211;-60
2021/11/10 08:17:52;;;;;;;6.25;5.28;;;;;;;;;;5072723;28;20201;-60
2021/11/10 08:20:20;;;;;;;6.30;5.13;;;;;;;;;;5072576;28;20208;-60
2021/11/10 08:22:48;;;;;;;12.52;6.53;;;;;;;;;;5072910;28;20197;-59
2021/11/10 08:25:16;;;;;;;8.77;6.15;;;;;;;;;;5072594;28;20223;-59
2021/11/10 08:27:46;;;;;;;7.05;5.22;;;;;;;;;;5073227;28;20205;-59
2021/11/10 08:30:14;;;;;;;6.72;4.68;;;;;;;;;;5072772;28;20209;-58
2021/11/10 08:32:41;;;;;;;9.52;5.57;;;;;;;;;;5072649;28;20210;-59
2021/11/10 08:35:09;;;;;;;8.60;5.70;;;;;;;;;;5072592;28;20204;-59
2021/11/10 08:37:37;;;;;;;8.38;5.25;;;;;;;;;;5072746;28;20205;-60
2021/11/10 08:40:04;;;;;;;6.70;5.10;;;;;;;;;;5072466;28;20216;-59
2021/11/10 08:42:33;;;;;;;8.10;5.63;;;;;;;;;;5072608;28;20208;-59
2021/11/10 08:45:02;;;;;;;7.45;4.88;;;;;;;;;;5072477;28;20679;-59
2021/11/10 08:47:30;;;;;;;9.18;5.93;;;;;;;;;;5072276;28;20570;-59
2021/11/10 08:49:57;;;;;;;10.13;4.88;;;;;;;;;;5072151;28;20237;-59
2021/11/10 08:52:27;;;;;;;8.48;6.00;;;;;;;;;;5072020;28;20225;-59
2021/11/10 08:54:54;;;;;;;7.40;5.13;;;;;;;;;;5074876;28;20285;-59
2021/11/10 08:57:22;;;;;;;6.60;4.90;;;;;;;;;;5076009;28;20635;-59
2021/11/10 08:59:49;;;;;;;4.68;4.20;;;;;;;;;;5075756;28;20235;-60
2021/11/10 09:02:18;;;;;;;5.75;4.60;;;;;;;;;;5075623;28;20228;-60
2021/11/10 09:04:45;;;;;;;7.05;4.75;;;;;;;;;;5075921;28;20201;-58
2021/11/10 09:07:13;;;;;;;8.23;5.35;;;;;;;;;;5076275;28;20200;-59
2021/11/10 09:09:40;;;;;;;6.78;4.03;;;;;;;;;;5075941;28;20711;-59
2021/11/10 09:12:09;;;;;;;6.45;4.47;;;;;;;;;;5076088;28;20255;-59
2021/11/10 09:14:36;;;;;;;7.38;5.38;;;;;;;;;;5076772;28;20240;-59
2021/11/10 09:17:04;;;;;;;5.75;4.90;;;;;;;;;;5075792;28;20209;-59
2021/11/10 09:19:33;;;;;;;6.40;5.05;;;;;;;;;;5075896;28;20201;-60
2021/11/10 09:22:00;;;;;;;7.00;4.75;;;;;;;;;;5075296;28;20255;-60
2021/11/10 09:24:27;;;;;;;7.68;5.07;;;;;;;;;;5075258;28;20208;-60
2021/11/10 09:26:54;;;;;;;7.55;5.43;;;;;;;;;;5075351;28;20372;-59
2021/11/10 09:29:22;;;;;;;5.97;4.25;;;;;;;;;;5074994;28;20221;-59
2021/11/10 09:31:49;;;;;;;7.63;4.63;;;;;;;;;;5075011;28;20228;-61
2021/11/10 09:34:17;;;;;;;5.55;4.07;;;;;;;;;;5075355;28;20201;-61
2021/11/10 09:36:48;;;;;;;7.07;5.18;;;;;;;;;;5075802;28;20208;-60
2021/11/10 09:39:16;;;;;;;5.35;4.30;;;;;;;;;;5076101;28;20177;-61
2021/11/10 09:41:44;;;;;;;8.05;4.65;;;;;;;;;;5074840;28;20229;-60
2021/11/10 09:44:11;;;;;;;8.68;5.25;;;;;;;;;;5074972;28;20208;-60
2021/11/10 09:46:39;;;;;;;5.63;4.63;;;;;;;;;;5075108;28;20201;-60
2021/11/10 09:49:07;;;;;;;5.30;4.80;;;;;;;;;;5075009;28;20224;-60
2021/11/10 09:51:35;;;;;;;8.48;5.03;;;;;;;;;;5074648;28;20224;-60
2021/11/10 09:54:05;;;;;;;7.68;5.55;;;;;;;;;;5074799;28;20201;-61
2021/11/10 09:56:32;;;;;;;9.00;5.57;;;;;;;;;;5075159;28;20204;-60
2021/11/10 09:58:59;;;;;;;9.90;4.85;;;;;;;;;;5075067;28;20205;-59
2021/11/10 10:01:29;;;;;;;12.05;6.28;;;;;;;;;;5074699;28;20779;-60
2021/11/10 10:03:58;;;;;;;6.80;4.63;;;;;;;;;;5074976;28;20576;-59
2021/11/10 10:06:26;;;;;;;9.82;5.40;;;;;;;;;;5074678;28;20205;-58
2021/11/10 10:08:53;;;;;;;6.82;4.40;;;;;;;;;;5075226;28;20275;-59
2021/11/10 10:11:22;;;;;;;10.57;5.05;;;;;;;;;;5074455;28;20217;-59
2021/11/10 10:13:49;;;;;;;7.13;4.72;;;;;;;;;;5073928;28;20205;-59
2021/11/10 10:16:20;;;;;;;9.48;5.20;;;;;;;;;;5074725;28;20221;-60
2021/11/10 10:18:48;;;;;;;6.88;5.03;;;;;;;;;;5074584;28;20201;-59
2021/11/10 10:21:17;;;;;;;5.60;4.72;;;;;;;;;;5110690;22;20218;-55
2021/11/10 10:23:46;;;;;;;9.73;5.10;;;;;;;;;;5094710;28;20185;-59
2021/11/10 10:26:14;;;;;;;6.90;5.30;;;;;;;;;;5095071;28;20227;-57
2021/11/10 10:28:46;;;;;;;7.10;5.25;;;;;;;;;;5095025;28;20227;-58
2021/11/10 10:31:14;;;;;;;11.50;5.72;;;;;;;;;;5095466;28;20571;-58
2021/11/10 10:33:42;;;;;;;7.68;4.90;;;;;;;;;;5095562;28;20608;-58
2021/11/10 10:36:11;;;;;;;6.55;4.80;;;;;;;;;;5096817;28;20201;-59
2021/11/10 10:38:39;;;;;;;8.10;4.53;;;;;;;;;;5096334;28;20205;-58
2021/11/10 10:41:08;;;;;;;8.88;4.47;;;;;;;;;;5095434;28;20283;-58
2021/11/10 10:43:39;;;;;;;6.07;4.65;;;;;;;;;;5095897;28;20197;-59
2021/11/10 10:46:09;;;;;;;6.15;4.20;;;;;;;;;;5095302;28;20185;-59
2021/11/10 10:48:37;;;;;;;6.33;4.87;;;;;;;;;;5095677;28;20200;-58
2021/11/10 10:51:05;;;;;;;7.60;4.20;;;;;;;;;;5095469;28;20444;-58
2021/11/10 10:53:34;;;;;;;6.43;4.20;;;;;;;;;;5095453;28;20450;-59
2021/11/10 10:56:02;;;;;;;7.90;4.63;;;;;;;;;;5095724;28;20915;-59
2021/11/10 10:58:36;;;;;;;5.73;4.10;;;;;;;;;;5095145;28;20487;-58
2021/11/10 11:01:19;;;;;;;8.40;5.70;;;;;;;;;;5094422;28;20436;-58
2021/11/10 11:03:49;;;;;;;7.13;3.93;;;;;;;;;;5093930;28;20922;-59
2021/11/10 11:06:24;;;;;;;5.50;4.07;;;;;;;;;;5094544;28;20475;-59
2021/11/10 11:08:52;;;;;;;7.13;3.83;;;;;;;;;;5097056;28;20432;-61
2021/11/10 11:11:21;;;;;;;5.83;4.37;;;;;;;;;;5094696;28;20551;-58
2021/11/10 11:13:49;;;;;;;7.90;5.40;;;;;;;;;;5094514;28;20449;-58
2021/11/10 11:16:21;;;;;;;8.93;5.17;;;;;;;;;;5097856;28;20456;-60
2021/11/10 11:18:48;;;;;;;10.03;6.90;;;;;;;;;;5099349;28;20817;-59
2021/11/10 11:21:23;;;;;;;7.63;4.37;;;;;;;;;;5099466;28;20484;-59
2021/11/10 11:23:50;;;;;;;5.20;4.10;;;;;;;;;;5099974;28;20419;-58
2021/11/10 11:26:37;;;;;;;6.37;4.40;;;;;;;;;;5100901;28;20459;-57
2021/11/10 11:29:23;;;;;;;8.20;5.27;;;;;;;;;;5097355;28;20483;-58
2021/11/10 11:31:52;;;;;;;11.93;5.90;;;;;;;;;;5097633;28;20468;-59
2021/11/10 11:34:21;;;;;;;9.00;6.23;;;;;;;;;;5097201;28;20444;-59
2021/11/10 11:36:50;;;;;;;8.60;5.70;;;;;;;;;;5095420;28;20444;-58
2021/11/10 11:39:18;;;;;;;4.80;4.30;;;;;;;;;;5095307;28;20943;-58
2021/11/10 11:41:45;;;;;;;7.20;4.60;;;;;;;;;;5094914;28;20478;-58
2021/11/10 11:44:12;;;;;;;6.83;4.67;;;;;;;;;;5094923;28;20446;-59
2021/11/10 11:46:40;;;;;;;4.47;4.07;;;;;;;;;;5095764;28;20451;-59
2021/11/10 11:49:09;;;;;;;6.73;5.10;;;;;;;;;;5095485;28;20486;-58
2021/11/10 11:51:36;;;;;;;6.33;4.77;;;;;;;;;;5094216;28;20479;-58
2021/11/10 11:54:05;;;;;;;6.10;5.00;;;;;;;;;;5093939;28;20455;-57
2021/11/10 11:56:33;;;;;;;9.37;4.43;;;;;;;;;;5094339;28;20455;-58
2021/11/10 11:59:02;;;;;;;6.30;4.50;;;;;;;;;;5094096;28;20977;-59
2021/11/10 12:01:31;;;;;;;7.13;4.43;;;;;;;;;;5093400;28;20464;-60
2021/11/10 12:04:02;;;;;;;6.50;4.73;;;;;;;;;;5093674;28;20439;-59
2021/11/10 12:06:31;;;;;;;11.53;5.97;;;;;;;;;;5093343;28;20586;-58
2021/11/10 12:08:59;;;;;;;8.17;4.93;;;;;;;;;;5092763;28;20452;-58
2021/11/10 12:11:28;;;;;;;6.03;4.33;;;;;;;;;;5094320;28;20471;-58
2021/11/10 12:14:10;;;;;;;7.13;5.27;;;;;;;;;;5092985;28;20444;-58
2021/11/10 12:16:48;;;;;;;6.27;5.13;;;;;;;;;;5091241;28;20455;-59
2021/11/10 12:19:20;;;;;;;5.90;4.40;;;;;;;;;;5092893;28;20432;-58
2021/11/10 12:21:51;;;;;;;7.40;4.33;;;;;;;;;;5093188;28;20482;-59
2021/11/10 12:24:19;;;;;;;5.20;4.63;;;;;;;;;;5092967;28;20543;-60
2021/11/10 12:27:05;;;;;;;8.40;5.10;;;;;;;;;;5093169;28;20445;-58
2021/11/10 12:29:49;;;;;;;6.17;4.60;;;;;;;;;;5095125;28;20495;-57
2021/11/10 12:32:17;;;;;;;8.50;5.00;;;;;;;;;;5097189;28;20528;-59
2021/11/10 12:34:48;;;;;;;6.50;4.93;;;;;;;;;;5097876;28;20449;-59
2021/11/10 12:37:24;;;;;;;7.77;5.50;;;;;;;;;;5097198;28;20477;-57
2021/11/10 12:40:00;;;;;;;8.13;5.20;;;;;;;;;;5097245;28;20423;-58
2021/11/10 12:42:40;;;;;;;6.23;5.67;;;;;;;;;;5097585;28;20467;-59
2021/11/10 12:45:07;;;;;;;6.93;5.13;;;;;;;;;;5097357;28;20430;-58
2021/11/10 12:47:42;;;;;;;8.50;5.33;;;;;;;;;;5097203;28;20444;-58
2021/11/10 12:50:20;;;;;;;5.83;4.57;;;;;;;;;;5097848;28;20546;-58
2021/11/10 12:52:50;;;;;;;7.47;4.73;;;;;;;;;;5096910;28;20520;-59
2021/11/10 12:55:18;;;;;;;5.70;4.43;;;;;;;;;;5097362;28;20816;-58
2021/11/10 12:57:46;;;;;;;8.27;5.20;;;;;;;;;;5096807;28;20514;-58
2021/11/10 13:00:13;;;;;;;7.83;4.23;;;;;;;;;;5097368;28;20432;-59
2021/11/10 13:02:41;;;;;;;5.67;4.70;;;;;;;;;;5096914;28;20478;-60
2021/11/10 13:05:09;;;;;;;8.07;4.67;;;;;;;;;;5096738;28;20443;-59
2021/11/10 13:07:44;;;;;;;6.10;5.00;;;;;;;;;;5096436;28;20443;-58
2021/11/10 13:10:14;;;;;;;6.00;4.67;;;;;;;;;;5096820;28;20490;-59
2021/11/10 13:12:42;;;;;;;7.10;4.00;;;;;;;;;;5096477;28;20462;-60
2021/11/10 13:15:10;;;;;;;6.80;4.33;;;;;;;;;;5096348;28;20828;-60
2021/11/10 13:17:38;;;;;;;6.97;4.00;;;;;;;;;;5096363;28;20455;-57
2021/11/10 13:20:07;;;;;;;5.80;4.97;;;;;;;;;;5095793;28;20446;-60
2021/11/10 13:22:36;;;;;;;5.33;4.07;;;;;;;;;;5095927;28;20483;-59
2021/11/10 13:25:06;;;;;;;7.10;3.97;;;;;;;;;;5096570;28;20448;-59
2021/11/10 13:27:36;;;;;;;6.10;4.67;;;;;;;;;;5096687;28;20464;-59
2021/11/10 13:30:06;;;;;;;5.17;4.67;;;;;;;;;;5095947;28;20483;-57
2021/11/10 13:32:33;;;;;;;6.13;4.63;;;;;;;;;;5096139;28;20479;-58
2021/11/10 13:35:02;;;;;;;5.90;4.10;;;;;;;;;;5095562;28;20521;-58
2021/11/10 13:37:40;;;;;;;5.83;3.90;;;;;;;;;;5096388;28;20443;-58
2021/11/10 13:40:08;;;;;;;5.53;3.53;;;;;;;;;;5094964;28;20780;-57
2021/11/10 13:42:38;;;;;;;4.93;4.00;;;;;;;;;;5095734;28;21005;-58
2021/11/10 13:45:09;;;;;;;5.60;4.23;;;;;;;;;;5096775;28;20437;-56
2021/11/10 13:47:37;;;;;;;5.77;4.43;;;;;;;;;;5095722;28;20451;-58
2021/11/10 13:50:06;;;;;;;10.13;4.43;;;;;;;;;;5096124;28;20470;-60
2021/11/10 13:52:33;;;;;;;5.03;4.53;;;;;;;;;;5096057;28;20935;-58
2021/11/10 13:55:01;;;;;;;5.53;4.03;;;;;;;;;;5096167;28;20463;-57
2021/11/10 13:57:29;;;;;;;5.00;3.60;;;;;;;;;;5095038;28;20452;-58
2021/11/10 14:00:01;;;;;;;6.30;3.60;;;;;;;;;;5095563;28;20498;-58
2021/11/10 14:02:31;;;;;;;5.23;3.70;;;;;;;;;;5095427;28;20490;-58
2021/11/10 14:05:00;;;;;;;4.50;3.43;;;;;;;;;;5096462;28;20451;-58
2021/11/10 14:07:27;;;;;;;7.17;4.30;;;;;;;;;;5094817;28;20466;-58
2021/11/10 14:10:00;;;;;;;6.30;3.90;;;;;;;;;;5095397;28;20474;-59
2021/11/10 14:12:35;;;;;;;6.33;4.07;;;;;;;;;;5095240;28;20491;-58
2021/11/10 14:15:06;;;;;;;7.93;4.07;;;;;;;;;;5095254;28;20945;-59
2021/11/10 14:17:34;;;;;;;6.33;4.00;;;;;;;;;;5095502;28;20451;-58
2021/11/10 14:20:02;;;;;;;6.30;4.50;;;;;;;;;;5095235;28;20440;-58
2021/11/10 14:22:30;;;;;;;7.23;4.30;;;;;;;;;;5095050;28;20475;-58
2021/11/10 14:24:58;;;;;;;6.47;4.00;;;;;;;;;;5095756;28;20478;-58
2021/11/10 14:27:35;;;;;;;7.27;4.17;;;;;;;;;;5094992;28;20483;-58
2021/11/10 14:30:13;;;;;;;6.30;3.70;;;;;;;;;;5095174;28;20476;-59
2021/11/10 14:32:42;;;;;;;7.43;4.55;;;;;;;;;;5095544;28;20513;-59
2021/11/10 14:35:10;;;;;;;4.90;4.10;;;;;;;;;;5094900;28;20549;-57
2021/11/10 14:37:37;;;;;;;5.20;4.13;;;;;;;;;;5095126;28;20200;-57
2021/11/10 14:40:25;;;;;;;6.37;4.20;;;;;;;;;;5094869;28;20257;-58
2021/11/10 14:42:52;;;;;;;9.18;4.50;;;;;;;;;;5094802;28;20472;-59
2021/11/10 14:45:22;;;;;;;5.80;4.13;;;;;;;;;;5095632;28;20209;-58
2021/11/10 14:47:50;;;;;;;6.50;4.18;;;;;;;;;;5095308;28;20487;-58
2021/11/10 14:50:18;;;;;;;5.20;4.50;;;;;;;;;;5095315;28;20223;-59
2021/11/10 14:52:45;;;;;;;6.03;3.75;;;;;;;;;;5093876;28;20460;-58